sensor_id;sensor_type;location;lat;lon;timestamp;P1;durP1;ratioP1;P2;durP2;ratioP2
67776;SDS011;54576;52.020;5.536;2022-07-21T00:01:44;4.93;;;4.50;;
67776;SDS011;54576;52.020;5.536;2022-07-21T00:04:10;4.55;;;3.78;;
67776;SDS011;54576;52.020;5.536;2022-07-21T00:06:36;5.10;;;3.70;;
67776;SDS011;54576;52.020;5.536;2022-07-21T00:09:02;4.13;;;3.30;;
67776;SDS011;54576;52.020;5.536;2022-07-21T00:11:27;3.75;;;3.40;;
67776;SDS011;54576;52.020;5.536;2022-07-21T00:13:53;11.10;;;4.10;;
67776;SDS011;54576;52.020;5.536;2022-07-21T00:16:19;4.18;;;3.58;;
67776;SDS011;54576;52.020;5.536;2022-07-21T00:18:45;4.25;;;3.80;;
67776;SDS011;54576;52.020;5.536;2022-07-21T00:21:10;8.23;;;3.85;;
67776;SDS011;54576;52.020;5.536;2022-07-21T00:23:36;5.40;;;3.72;;
67776;SDS011;54576;52.020;5.536;2022-07-21T00:26:02;5.40;;;3.50;;
67776;SDS011;54576;52.020;5.536;2022-07-21T00:28:27;5.57;;;3.53;;
67776;SDS011;54576;52.020;5.536;2022-07-21T00:30:53;3.97;;;3.67;;
67776;SDS011;54576;52.020;5.536;2022-07-21T00:33:19;5.72;;;3.95;;
67776;SDS011;54576;52.020;5.536;2022-07-21T00:35:45;4.72;;;3.95;;
67776;SDS011;54576;52.020;5.536;2022-07-21T00:38:11;4.78;;;3.95;;
67776;SDS011;54576;52.020;5.536;2022-07-21T00:40:37;4.15;;;3.47;;
67776;SDS011;54576;52.020;5.536;2022-07-21T00:43:02;4.65;;;3.58;;
67776;SDS011;54576;52.020;5.536;2022-07-21T00:45:28;5.75;;;3.67;;
67776;SDS011;54576;52.020;5.536;2022-07-21T00:47:55;4.85;;;3.40;;
67776;SDS011;54576;52.020;5.536;2022-07-21T00:50:21;8.10;;;3.67;;
67776;SDS011;54576;52.020;5.536;2022-07-21T00:52:47;4.18;;;3.58;;
67776;SDS011;54576;52.020;5.536;2022-07-21T00:55:17;7.55;;;3.45;;
67776;SDS011;54576;52.020;5.536;2022-07-21T00:57:45;4.63;;;4.13;;
67776;SDS011;54576;52.020;5.536;2022-07-21T01:00:15;5.05;;;4.55;;
67776;SDS011;54576;52.020;5.536;2022-07-21T01:02:43;4.25;;;3.85;;
67776;SDS011;54576;52.020;5.536;2022-07-21T01:05:10;4.85;;;4.22;;
67776;SDS011;54576;52.020;5.536;2022-07-21T01:07:41;4.82;;;4.32;;
67776;SDS011;54576;52.020;5.536;2022-07-21T01:10:09;6.10;;;4.28;;
67776;SDS011;54576;52.020;5.536;2022-07-21T01:12:36;5.43;;;4.22;;
67776;SDS011;54576;52.020;5.536;2022-07-21T01:15:03;5.00;;;4.50;;
67776;SDS011;54576;52.020;5.536;2022-07-21T01:17:29;5.82;;;4.70;;
67776;SDS011;54576;52.020;5.536;2022-07-21T01:19:55;5.45;;;4.90;;
67776;SDS011;54576;52.020;5.536;2022-07-21T01:22:21;5.25;;;4.68;;
67776;SDS011;54576;52.020;5.536;2022-07-21T01:24:50;7.03;;;5.25;;
67776;SDS011;54576;52.020;5.536;2022-07-21T01:27:15;7.70;;;4.80;;
67776;SDS011;54576;52.020;5.536;2022-07-21T01:29:41;8.25;;;4.97;;
67776;SDS011;54576;52.020;5.536;2022-07-21T01:32:07;7.43;;;4.97;;
67776;SDS011;54576;52.020;5.536;2022-07-21T01:34:32;6.28;;;5.68;;
67776;SDS011;54576;52.020;5.536;2022-07-21T01:36:58;5.45;;;4.95;;
67776;SDS011;54576;52.020;5.536;2022-07-21T01:39:23;7.05;;;4.95;;
67776;SDS011;54576;52.020;5.536;2022-07-21T01:42:07;6.13;;;5.05;;
67776;SDS011;54576;52.020;5.536;2022-07-21T01:44:33;6.43;;;5.82;;
67776;SDS011;54576;52.020;5.536;2022-07-21T01:46:59;7.15;;;5.45;;
67776;SDS011;54576;52.020;5.536;2022-07-21T01:49:24;6.57;;;5.72;;
67776;SDS011;54576;52.020;5.536;2022-07-21T01:51:50;6.25;;;5.65;;
67776;SDS011;54576;52.020;5.536;2022-07-21T01:54:16;6.28;;;5.60;;
67776;SDS011;54576;52.020;5.536;2022-07-21T01:56:42;10.57;;;6.60;;
67776;SDS011;54576;52.020;5.536;2022-07-21T01:59:08;9.10;;;6.93;;
67776;SDS011;54576;52.020;5.536;2022-07-21T02:01:34;13.65;;;7.53;;
67776;SDS011;54576;52.020;5.536;2022-07-21T02:04:02;8.55;;;7.30;;
67776;SDS011;54576;52.020;5.536;2022-07-21T02:06:29;8.43;;;7.10;;
67776;SDS011;54576;52.020;5.536;2022-07-21T02:08:55;8.23;;;7.40;;
67776;SDS011;54576;52.020;5.536;2022-07-21T02:11:21;8.25;;;7.32;;
67776;SDS011;54576;52.020;5.536;2022-07-21T02:13:46;10.27;;;8.90;;
67776;SDS011;54576;52.020;5.536;2022-07-21T02:16:13;11.10;;;8.07;;
67776;SDS011;54576;52.020;5.536;2022-07-21T02:18:39;11.02;;;8.43;;
67776;SDS011;54576;52.020;5.536;2022-07-21T02:21:06;8.55;;;7.47;;
67776;SDS011;54576;52.020;5.536;2022-07-21T02:23:32;9.65;;;7.35;;
67776;SDS011;54576;52.020;5.536;2022-07-21T02:25:58;9.63;;;8.63;;
67776;SDS011;54576;52.020;5.536;2022-07-21T02:28:24;12.30;;;8.35;;
67776;SDS011;54576;52.020;5.536;2022-07-21T02:30:50;11.80;;;9.05;;
67776;SDS011;54576;52.020;5.536;2022-07-21T02:33:16;14.13;;;9.65;;
67776;SDS011;54576;52.020;5.536;2022-07-21T02:35:42;12.02;;;9.13;;
67776;SDS011;54576;52.020;5.536;2022-07-21T02:38:08;15.57;;;9.00;;
67776;SDS011;54576;52.020;5.536;2022-07-21T02:40:34;12.45;;;9.93;;
67776;SDS011;54576;52.020;5.536;2022-07-21T02:43:00;11.82;;;9.95;;
67776;SDS011;54576;52.020;5.536;2022-07-21T02:45:26;11.77;;;9.60;;
67776;SDS011;54576;52.020;5.536;2022-07-21T02:47:58;14.43;;;9.40;;
67776;SDS011;54576;52.020;5.536;2022-07-21T02:50:33;16.77;;;10.10;;
67776;SDS011;54576;52.020;5.536;2022-07-21T02:53:01;13.30;;;10.40;;
67776;SDS011;54576;52.020;5.536;2022-07-21T02:55:31;13.50;;;9.95;;
67776;SDS011;54576;52.020;5.536;2022-07-21T02:58:07;12.30;;;9.85;;
67776;SDS011;54576;52.020;5.536;2022-07-21T03:00:36;12.57;;;10.27;;
67776;SDS011;54576;52.020;5.536;2022-07-21T03:03:03;12.45;;;10.18;;
67776;SDS011;54576;52.020;5.536;2022-07-21T03:05:29;13.15;;;11.00;;
67776;SDS011;54576;52.020;5.536;2022-07-21T03:07:55;14.30;;;9.95;;
67776;SDS011;54576;52.020;5.536;2022-07-21T03:10:20;14.68;;;10.98;;
67776;SDS011;54576;52.020;5.536;2022-07-21T03:12:46;13.35;;;11.05;;
67776;SDS011;54576;52.020;5.536;2022-07-21T03:15:12;14.88;;;12.07;;
67776;SDS011;54576;52.020;5.536;2022-07-21T03:17:38;13.60;;;10.88;;
67776;SDS011;54576;52.020;5.536;2022-07-21T03:20:03;15.75;;;12.18;;
67776;SDS011;54576;52.020;5.536;2022-07-21T03:22:30;13.88;;;10.68;;
67776;SDS011;54576;52.020;5.536;2022-07-21T03:24:55;19.83;;;11.82;;
67776;SDS011;54576;52.020;5.536;2022-07-21T03:27:21;15.25;;;12.05;;
67776;SDS011;54576;52.020;5.536;2022-07-21T03:29:47;19.95;;;13.63;;
67776;SDS011;54576;52.020;5.536;2022-07-21T03:32:12;14.35;;;11.85;;
67776;SDS011;54576;52.020;5.536;2022-07-21T03:34:38;16.27;;;12.88;;
67776;SDS011;54576;52.020;5.536;2022-07-21T03:37:03;17.15;;;12.77;;
67776;SDS011;54576;52.020;5.536;2022-07-21T03:39:29;16.95;;;12.77;;
67776;SDS011;54576;52.020;5.536;2022-07-21T03:41:54;16.27;;;13.00;;
67776;SDS011;54576;52.020;5.536;2022-07-21T03:44:20;15.70;;;13.48;;
67776;SDS011;54576;52.020;5.536;2022-07-21T03:46:46;17.67;;;13.15;;
67776;SDS011;54576;52.020;5.536;2022-07-21T03:49:11;18.90;;;13.88;;
67776;SDS011;54576;52.020;5.536;2022-07-21T03:51:37;20.60;;;11.48;;
67776;SDS011;54576;52.020;5.536;2022-07-21T03:54:02;20.80;;;14.25;;
67776;SDS011;54576;52.020;5.536;2022-07-21T03:56:28;17.65;;;12.77;;
67776;SDS011;54576;52.020;5.536;2022-07-21T03:58:54;16.15;;;12.70;;
67776;SDS011;54576;52.020;5.536;2022-07-21T04:01:21;16.92;;;13.75;;
67776;SDS011;54576;52.020;5.536;2022-07-21T04:03:46;22.25;;;14.13;;
67776;SDS011;54576;52.020;5.536;2022-07-21T04:06:12;23.40;;;14.10;;
67776;SDS011;54576;52.020;5.536;2022-07-21T04:08:37;21.85;;;14.38;;
67776;SDS011;54576;52.020;5.536;2022-07-21T04:11:03;21.60;;;14.52;;
67776;SDS011;54576;52.020;5.536;2022-07-21T04:13:29;20.80;;;14.70;;
67776;SDS011;54576;52.020;5.536;2022-07-21T04:15:55;23.15;;;15.25;;
67776;SDS011;54576;52.020;5.536;2022-07-21T04:18:20;19.25;;;14.30;;
67776;SDS011;54576;52.020;5.536;2022-07-21T04:20:46;22.73;;;15.80;;
67776;SDS011;54576;52.020;5.536;2022-07-21T04:23:12;18.90;;;15.05;;
67776;SDS011;54576;52.020;5.536;2022-07-21T04:25:37;19.08;;;15.60;;
67776;SDS011;54576;52.020;5.536;2022-07-21T04:28:04;26.05;;;16.40;;
67776;SDS011;54576;52.020;5.536;2022-07-21T04:30:30;21.20;;;15.60;;
67776;SDS011;54576;52.020;5.536;2022-07-21T04:32:56;29.80;;;18.85;;
67776;SDS011;54576;52.020;5.536;2022-07-21T04:35:22;21.95;;;17.13;;
67776;SDS011;54576;52.020;5.536;2022-07-21T04:37:48;28.58;;;18.27;;
67776;SDS011;54576;52.020;5.536;2022-07-21T04:40:14;31.00;;;18.40;;
67776;SDS011;54576;52.020;5.536;2022-07-21T04:42:40;25.95;;;17.80;;
67776;SDS011;54576;52.020;5.536;2022-07-21T04:45:08;32.92;;;19.02;;
67776;SDS011;54576;52.020;5.536;2022-07-21T04:47:48;31.25;;;20.20;;
67776;SDS011;54576;52.020;5.536;2022-07-21T04:50:21;26.67;;;19.40;;
67776;SDS011;54576;52.020;5.536;2022-07-21T04:52:48;25.77;;;18.52;;
67776;SDS011;54576;52.020;5.536;2022-07-21T04:55:14;34.28;;;19.30;;
67776;SDS011;54576;52.020;5.536;2022-07-21T04:57:41;32.58;;;20.33;;
67776;SDS011;54576;52.020;5.536;2022-07-21T05:00:12;33.08;;;22.13;;
67776;SDS011;54576;52.020;5.536;2022-07-21T05:05:05;35.53;;;20.33;;
67776;SDS011;54576;52.020;5.536;2022-07-21T05:07:31;30.52;;;20.38;;
67776;SDS011;54576;52.020;5.536;2022-07-21T05:09:57;32.38;;;21.58;;
67776;SDS011;54576;52.020;5.536;2022-07-21T05:12:24;30.33;;;21.33;;
67776;SDS011;54576;52.020;5.536;2022-07-21T05:14:50;31.08;;;20.50;;
67776;SDS011;54576;52.020;5.536;2022-07-21T05:17:16;29.85;;;22.40;;
67776;SDS011;54576;52.020;5.536;2022-07-21T05:19:41;33.33;;;21.67;;
67776;SDS011;54576;52.020;5.536;2022-07-21T05:22:08;33.03;;;23.02;;
67776;SDS011;54576;52.020;5.536;2022-07-21T05:24:34;30.52;;;22.13;;
67776;SDS011;54576;52.020;5.536;2022-07-21T05:27:00;34.95;;;22.67;;
67776;SDS011;54576;52.020;5.536;2022-07-21T05:29:25;33.28;;;23.42;;
67776;SDS011;54576;52.020;5.536;2022-07-21T05:31:51;34.20;;;21.75;;
67776;SDS011;54576;52.020;5.536;2022-07-21T05:34:16;35.05;;;21.83;;
67776;SDS011;54576;52.020;5.536;2022-07-21T05:36:42;33.45;;;21.05;;
67776;SDS011;54576;52.020;5.536;2022-07-21T05:39:07;32.10;;;19.58;;
67776;SDS011;54576;52.020;5.536;2022-07-21T05:41:33;23.75;;;17.90;;
67776;SDS011;54576;52.020;5.536;2022-07-21T05:43:59;30.00;;;19.73;;
67776;SDS011;54576;52.020;5.536;2022-07-21T05:46:24;27.30;;;19.13;;
67776;SDS011;54576;52.020;5.536;2022-07-21T05:48:50;21.63;;;16.98;;
67776;SDS011;54576;52.020;5.536;2022-07-21T05:51:17;24.52;;;17.67;;
67776;SDS011;54576;52.020;5.536;2022-07-21T05:53:43;28.90;;;18.15;;
67776;SDS011;54576;52.020;5.536;2022-07-21T05:56:08;26.45;;;17.52;;
67776;SDS011;54576;52.020;5.536;2022-07-21T05:58:34;29.45;;;17.55;;
67776;SDS011;54576;52.020;5.536;2022-07-21T06:01:00;32.60;;;17.13;;
67776;SDS011;54576;52.020;5.536;2022-07-21T06:03:35;27.35;;;17.00;;
67776;SDS011;54576;52.020;5.536;2022-07-21T06:06:02;25.00;;;15.60;;
67776;SDS011;54576;52.020;5.536;2022-07-21T06:08:28;24.10;;;15.93;;
67776;SDS011;54576;52.020;5.536;2022-07-21T06:10:53;25.90;;;13.82;;
67776;SDS011;54576;52.020;5.536;2022-07-21T06:13:19;28.35;;;15.75;;
67776;SDS011;54576;52.020;5.536;2022-07-21T06:15:45;25.77;;;15.32;;
67776;SDS011;54576;52.020;5.536;2022-07-21T06:18:11;21.35;;;15.48;;
67776;SDS011;54576;52.020;5.536;2022-07-21T06:20:36;21.05;;;14.60;;
67776;SDS011;54576;52.020;5.536;2022-07-21T06:23:02;24.00;;;15.15;;
67776;SDS011;54576;52.020;5.536;2022-07-21T06:25:27;24.52;;;14.98;;
67776;SDS011;54576;52.020;5.536;2022-07-21T06:27:53;22.42;;;13.77;;
67776;SDS011;54576;52.020;5.536;2022-07-21T06:30:19;29.17;;;14.35;;
67776;SDS011;54576;52.020;5.536;2022-07-21T06:32:45;24.77;;;15.02;;
67776;SDS011;54576;52.020;5.536;2022-07-21T06:35:10;27.35;;;14.50;;
67776;SDS011;54576;52.020;5.536;2022-07-21T06:37:36;25.05;;;14.98;;
67776;SDS011;54576;52.020;5.536;2022-07-21T06:40:02;20.65;;;13.73;;
67776;SDS011;54576;52.020;5.536;2022-07-21T06:42:28;29.85;;;15.20;;
67776;SDS011;54576;52.020;5.536;2022-07-21T06:44:54;26.10;;;14.90;;
67776;SDS011;54576;52.020;5.536;2022-07-21T06:47:19;22.35;;;14.20;;
67776;SDS011;54576;52.020;5.536;2022-07-21T06:49:45;34.47;;;13.70;;
67776;SDS011;54576;52.020;5.536;2022-07-21T06:52:11;32.22;;;14.00;;
67776;SDS011;54576;52.020;5.536;2022-07-21T06:54:37;26.60;;;14.85;;
67776;SDS011;54576;52.020;5.536;2022-07-21T06:57:02;30.17;;;15.95;;
67776;SDS011;54576;52.020;5.536;2022-07-21T06:59:28;32.38;;;15.93;;
67776;SDS011;54576;52.020;5.536;2022-07-21T07:01:53;36.20;;;17.05;;
67776;SDS011;54576;52.020;5.536;2022-07-21T07:04:20;28.23;;;16.52;;
67776;SDS011;54576;52.020;5.536;2022-07-21T07:06:45;24.58;;;16.75;;
67776;SDS011;54576;52.020;5.536;2022-07-21T07:09:15;29.50;;;17.52;;
67776;SDS011;54576;52.020;5.536;2022-07-21T07:11:41;31.20;;;18.40;;
67776;SDS011;54576;52.020;5.536;2022-07-21T07:14:07;31.95;;;16.92;;
67776;SDS011;54576;52.020;5.536;2022-07-21T07:16:32;28.65;;;16.70;;
67776;SDS011;54576;52.020;5.536;2022-07-21T07:18:58;27.38;;;16.80;;
67776;SDS011;54576;52.020;5.536;2022-07-21T07:21:24;53.13;;;22.20;;
67776;SDS011;54576;52.020;5.536;2022-07-21T07:23:49;28.58;;;18.23;;
67776;SDS011;54576;52.020;5.536;2022-07-21T07:26:15;30.90;;;17.80;;
67776;SDS011;54576;52.020;5.536;2022-07-21T07:28:40;27.25;;;18.02;;
67776;SDS011;54576;52.020;5.536;2022-07-21T07:31:06;35.70;;;18.90;;
67776;SDS011;54576;52.020;5.536;2022-07-21T07:33:32;29.23;;;18.58;;
67776;SDS011;54576;52.020;5.536;2022-07-21T07:35:58;28.70;;;17.80;;
67776;SDS011;54576;52.020;5.536;2022-07-21T07:38:24;28.60;;;18.33;;
67776;SDS011;54576;52.020;5.536;2022-07-21T07:40:50;32.25;;;19.60;;
67776;SDS011;54576;52.020;5.536;2022-07-21T07:43:15;37.35;;;18.73;;
67776;SDS011;54576;52.020;5.536;2022-07-21T07:45:41;29.20;;;18.67;;
67776;SDS011;54576;52.020;5.536;2022-07-21T07:48:07;39.38;;;18.85;;
67776;SDS011;54576;52.020;5.536;2022-07-21T07:50:32;39.13;;;19.45;;
67776;SDS011;54576;52.020;5.536;2022-07-21T07:52:58;40.50;;;21.45;;
67776;SDS011;54576;52.020;5.536;2022-07-21T07:55:23;41.85;;;22.98;;
67776;SDS011;54576;52.020;5.536;2022-07-21T07:57:49;34.90;;;21.08;;
67776;SDS011;54576;52.020;5.536;2022-07-21T08:00:15;35.53;;;22.77;;
67776;SDS011;54576;52.020;5.536;2022-07-21T08:02:43;47.17;;;22.60;;
67776;SDS011;54576;52.020;5.536;2022-07-21T08:05:10;41.00;;;21.98;;
67776;SDS011;54576;52.020;5.536;2022-07-21T08:07:37;42.50;;;22.67;;
67776;SDS011;54576;52.020;5.536;2022-07-21T08:10:07;48.65;;;23.23;;
67776;SDS011;54576;52.020;5.536;2022-07-21T08:12:33;47.13;;;21.45;;
67776;SDS011;54576;52.020;5.536;2022-07-21T08:15:00;41.42;;;24.02;;
67776;SDS011;54576;52.020;5.536;2022-07-21T08:17:25;51.47;;;24.52;;
67776;SDS011;54576;52.020;5.536;2022-07-21T08:19:51;55.90;;;27.25;;
67776;SDS011;54576;52.020;5.536;2022-07-21T08:22:16;56.42;;;28.98;;
67776;SDS011;54576;52.020;5.536;2022-07-21T08:24:42;59.70;;;29.45;;
67776;SDS011;54576;52.020;5.536;2022-07-21T08:27:08;57.30;;;27.73;;
67776;SDS011;54576;52.020;5.536;2022-07-21T08:29:33;96.53;;;35.83;;
67776;SDS011;54576;52.020;5.536;2022-07-21T08:31:59;68.43;;;32.08;;
67776;SDS011;54576;52.020;5.536;2022-07-21T08:34:25;74.47;;;32.38;;
67776;SDS011;54576;52.020;5.536;2022-07-21T08:36:51;66.22;;;32.35;;
67776;SDS011;54576;52.020;5.536;2022-07-21T08:39:17;66.07;;;32.63;;
67776;SDS011;54576;52.020;5.536;2022-07-21T08:41:42;67.53;;;30.60;;
67776;SDS011;54576;52.020;5.536;2022-07-21T08:44:08;66.03;;;30.42;;
67776;SDS011;54576;52.020;5.536;2022-07-21T08:46:36;85.90;;;32.42;;
67776;SDS011;54576;52.020;5.536;2022-07-21T08:49:05;72.07;;;30.83;;
67776;SDS011;54576;52.020;5.536;2022-07-21T08:51:32;52.58;;;25.80;;
67776;SDS011;54576;52.020;5.536;2022-07-21T08:53:59;56.90;;;27.30;;
67776;SDS011;54576;52.020;5.536;2022-07-21T08:56:25;44.97;;;25.05;;
67776;SDS011;54576;52.020;5.536;2022-07-21T08:58:50;33.92;;;20.75;;
67776;SDS011;54576;52.020;5.536;2022-07-21T09:01:16;29.92;;;17.75;;
67776;SDS011;54576;52.020;5.536;2022-07-21T09:03:41;31.98;;;19.02;;
67776;SDS011;54576;52.020;5.536;2022-07-21T09:06:09;29.65;;;17.25;;
67776;SDS011;54576;52.020;5.536;2022-07-21T09:08:42;29.48;;;17.70;;
67776;SDS011;54576;52.020;5.536;2022-07-21T09:11:17;33.38;;;16.10;;
67776;SDS011;54576;52.020;5.536;2022-07-21T09:13:43;27.90;;;17.00;;
67776;SDS011;54576;52.020;5.536;2022-07-21T09:16:11;25.05;;;16.58;;
67776;SDS011;54576;52.020;5.536;2022-07-21T09:18:55;25.45;;;16.27;;
67776;SDS011;54576;52.020;5.536;2022-07-21T09:21:21;21.70;;;14.88;;
67776;SDS011;54576;52.020;5.536;2022-07-21T09:23:47;22.25;;;14.48;;
67776;SDS011;54576;52.020;5.536;2022-07-21T09:26:12;30.73;;;15.30;;
67776;SDS011;54576;52.020;5.536;2022-07-21T09:28:38;19.02;;;15.13;;
67776;SDS011;54576;52.020;5.536;2022-07-21T09:31:06;24.52;;;13.98;;
67776;SDS011;54576;52.020;5.536;2022-07-21T09:33:37;19.48;;;14.10;;
67776;SDS011;54576;52.020;5.536;2022-07-21T09:36:05;20.02;;;12.32;;
67776;SDS011;54576;52.020;5.536;2022-07-21T09:38:37;23.45;;;14.45;;
67776;SDS011;54576;52.020;5.536;2022-07-21T09:41:11;26.85;;;14.98;;
67776;SDS011;54576;52.020;5.536;2022-07-21T09:43:39;23.30;;;14.25;;
67776;SDS011;54576;52.020;5.536;2022-07-21T09:46:12;22.88;;;14.15;;
67776;SDS011;54576;52.020;5.536;2022-07-21T09:48:43;21.38;;;13.43;;
67776;SDS011;54576;52.020;5.536;2022-07-21T09:53:56;27.10;;;13.10;;
67776;SDS011;54576;52.020;5.536;2022-07-21T09:56:24;17.52;;;12.25;;
67776;SDS011;54576;52.020;5.536;2022-07-21T09:58:52;21.15;;;12.88;;
67776;SDS011;54576;52.020;5.536;2022-07-21T10:01:19;16.70;;;12.32;;
67776;SDS011;54576;52.020;5.536;2022-07-21T10:03:47;16.65;;;8.27;;
67776;SDS011;54576;52.020;5.536;2022-07-21T10:06:17;6.85;;;6.15;;
67776;SDS011;54576;52.020;5.536;2022-07-21T10:08:44;10.05;;;6.82;;
67776;SDS011;54576;52.020;5.536;2022-07-21T10:11:10;11.30;;;7.28;;
67776;SDS011;54576;52.020;5.536;2022-07-21T10:13:36;8.05;;;6.30;;
67776;SDS011;54576;52.020;5.536;2022-07-21T10:16:03;12.07;;;5.80;;
67776;SDS011;54576;52.020;5.536;2022-07-21T10:18:34;6.93;;;5.50;;
67776;SDS011;54576;52.020;5.536;2022-07-21T10:24:36;4.63;;;4.18;;
67776;SDS011;54576;52.020;5.536;2022-07-21T10:27:11;8.35;;;3.80;;
67776;SDS011;54576;52.020;5.536;2022-07-21T10:32:16;4.15;;;3.75;;
67776;SDS011;54576;52.020;5.536;2022-07-21T10:34:43;4.90;;;3.53;;
67776;SDS011;54576;52.020;5.536;2022-07-21T10:37:09;4.07;;;3.13;;
67776;SDS011;54576;52.020;5.536;2022-07-21T10:39:35;3.30;;;3.00;;
67776;SDS011;54576;52.020;5.536;2022-07-21T10:42:13;3.72;;;3.35;;
67776;SDS011;54576;52.020;5.536;2022-07-21T10:44:42;3.53;;;3.10;;
67776;SDS011;54576;52.020;5.536;2022-07-21T10:47:10;4.60;;;3.17;;
67776;SDS011;54576;52.020;5.536;2022-07-21T10:57:35;3.53;;;3.17;;
67776;SDS011;54576;52.020;5.536;2022-07-21T11:00:18;4.47;;;3.40;;
67776;SDS011;54576;52.020;5.536;2022-07-21T11:02:57;3.05;;;2.80;;
67776;SDS011;54576;52.020;5.536;2022-07-21T11:05:27;3.83;;;3.47;;
67776;SDS011;54576;52.020;5.536;2022-07-21T11:08:13;4.97;;;3.50;;
67776;SDS011;54576;52.020;5.536;2022-07-21T11:10:44;5.93;;;4.00;;
67776;SDS011;54576;52.020;5.536;2022-07-21T11:13:12;6.38;;;3.83;;
67776;SDS011;54576;52.020;5.536;2022-07-21T11:18:21;8.90;;;5.22;;
67776;SDS011;54576;52.020;5.536;2022-07-21T11:21:08;8.48;;;5.35;;
67776;SDS011;54576;52.020;5.536;2022-07-21T11:23:43;6.57;;;5.15;;
67776;SDS011;54576;52.020;5.536;2022-07-21T11:26:11;7.68;;;5.35;;
67776;SDS011;54576;52.020;5.536;2022-07-21T11:28:38;6.70;;;4.90;;
67776;SDS011;54576;52.020;5.536;2022-07-21T11:31:07;7.00;;;5.35;;
67776;SDS011;54576;52.020;5.536;2022-07-21T11:33:40;7.05;;;5.07;;
67776;SDS011;54576;52.020;5.536;2022-07-21T11:36:09;10.43;;;5.40;;
67776;SDS011;54576;52.020;5.536;2022-07-21T11:38:35;7.38;;;5.63;;
67776;SDS011;54576;52.020;5.536;2022-07-21T11:41:16;10.93;;;5.40;;
67776;SDS011;54576;52.020;5.536;2022-07-21T11:43:44;7.15;;;5.22;;
67776;SDS011;54576;52.020;5.536;2022-07-21T11:46:11;11.52;;;5.97;;
67776;SDS011;54576;52.020;5.536;2022-07-21T11:48:37;10.07;;;5.05;;
67776;SDS011;54576;52.020;5.536;2022-07-21T11:51:03;7.93;;;5.38;;
67776;SDS011;54576;52.020;5.536;2022-07-21T11:53:29;8.20;;;6.00;;
67776;SDS011;54576;52.020;5.536;2022-07-21T11:55:56;7.38;;;5.45;;
67776;SDS011;54576;52.020;5.536;2022-07-21T11:58:22;9.18;;;5.90;;
67776;SDS011;54576;52.020;5.536;2022-07-21T12:00:47;9.55;;;5.72;;
67776;SDS011;54576;52.020;5.536;2022-07-21T12:03:14;10.43;;;6.55;;
67776;SDS011;54576;52.020;5.536;2022-07-21T12:05:40;10.95;;;6.72;;
67776;SDS011;54576;52.020;5.536;2022-07-21T12:08:07;11.50;;;6.13;;
67776;SDS011;54576;52.020;5.536;2022-07-21T12:10:33;10.00;;;7.10;;
67776;SDS011;54576;52.020;5.536;2022-07-21T12:13:00;12.48;;;6.45;;
67776;SDS011;54576;52.020;5.536;2022-07-21T12:15:31;12.35;;;7.07;;
67776;SDS011;54576;52.020;5.536;2022-07-21T12:20:38;9.02;;;6.07;;
67776;SDS011;54576;52.020;5.536;2022-07-21T12:23:22;8.73;;;5.90;;
67776;SDS011;54576;52.020;5.536;2022-07-21T12:25:50;11.68;;;5.47;;
67776;SDS011;54576;52.020;5.536;2022-07-21T12:28:16;10.02;;;5.80;;
67776;SDS011;54576;52.020;5.536;2022-07-21T12:30:43;8.50;;;4.35;;
67776;SDS011;54576;52.020;5.536;2022-07-21T12:33:14;5.40;;;4.30;;
67776;SDS011;54576;52.020;5.536;2022-07-21T12:35:42;10.68;;;4.35;;
67776;SDS011;54576;52.020;5.536;2022-07-21T12:38:22;5.68;;;4.28;;
67776;SDS011;54576;52.020;5.536;2022-07-21T12:41:04;6.22;;;4.28;;
67776;SDS011;54576;52.020;5.536;2022-07-21T12:43:30;5.88;;;3.95;;
67776;SDS011;54576;52.020;5.536;2022-07-21T12:48:30;4.93;;;3.92;;
67776;SDS011;54576;52.020;5.536;2022-07-21T12:50:58;7.65;;;3.95;;
67776;SDS011;54576;52.020;5.536;2022-07-21T12:53:32;4.70;;;3.65;;
67776;SDS011;54576;52.020;5.536;2022-07-21T12:55:59;4.75;;;3.13;;
67776;SDS011;54576;52.020;5.536;2022-07-21T12:58:25;5.07;;;3.30;;
67776;SDS011;54576;52.020;5.536;2022-07-21T13:00:50;5.65;;;3.53;;
67776;SDS011;54576;52.020;5.536;2022-07-21T13:03:16;4.18;;;3.67;;
67776;SDS011;54576;52.020;5.536;2022-07-21T13:05:42;3.65;;;3.00;;
67776;SDS011;54576;52.020;5.536;2022-07-21T13:08:07;3.10;;;2.80;;
67776;SDS011;54576;52.020;5.536;2022-07-21T13:10:33;3.17;;;2.88;;
67776;SDS011;54576;52.020;5.536;2022-07-21T13:12:59;4.13;;;3.22;;
67776;SDS011;54576;52.020;5.536;2022-07-21T13:15:25;3.33;;;3.05;;
67776;SDS011;54576;52.020;5.536;2022-07-21T13:17:50;4.38;;;3.40;;
67776;SDS011;54576;52.020;5.536;2022-07-21T13:20:16;3.30;;;2.90;;
67776;SDS011;54576;52.020;5.536;2022-07-21T13:22:42;3.90;;;2.72;;
67776;SDS011;54576;52.020;5.536;2022-07-21T13:25:08;4.43;;;2.75;;
67776;SDS011;54576;52.020;5.536;2022-07-21T13:27:35;4.65;;;3.40;;
67776;SDS011;54576;52.020;5.536;2022-07-21T13:30:05;11.10;;;3.33;;
67776;SDS011;54576;52.020;5.536;2022-07-21T13:32:32;4.07;;;3.30;;
67776;SDS011;54576;52.020;5.536;2022-07-21T13:34:59;4.15;;;3.03;;
67776;SDS011;54576;52.020;5.536;2022-07-21T13:37:24;3.10;;;2.83;;
67776;SDS011;54576;52.020;5.536;2022-07-21T13:39:50;8.05;;;2.75;;
67776;SDS011;54576;52.020;5.536;2022-07-21T13:42:16;3.58;;;2.95;;
67776;SDS011;54576;52.020;5.536;2022-07-21T13:44:41;3.75;;;2.78;;
67776;SDS011;54576;52.020;5.536;2022-07-21T13:47:07;3.35;;;2.63;;
67776;SDS011;54576;52.020;5.536;2022-07-21T13:49:33;4.25;;;2.20;;
67776;SDS011;54576;52.020;5.536;2022-07-21T13:51:58;4.10;;;2.58;;
67776;SDS011;54576;52.020;5.536;2022-07-21T13:54:24;5.00;;;2.30;;
67776;SDS011;54576;52.020;5.536;2022-07-21T13:56:50;4.30;;;1.80;;
67776;SDS011;54576;52.020;5.536;2022-07-21T13:59:15;2.63;;;1.70;;
67776;SDS011;54576;52.020;5.536;2022-07-21T14:01:41;3.25;;;1.75;;
67776;SDS011;54576;52.020;5.536;2022-07-21T14:04:07;3.10;;;2.05;;
67776;SDS011;54576;52.020;5.536;2022-07-21T14:06:33;5.55;;;2.30;;
67776;SDS011;54576;52.020;5.536;2022-07-21T14:08:59;2.17;;;2.08;;
67776;SDS011;54576;52.020;5.536;2022-07-21T14:11:25;2.95;;;2.00;;
67776;SDS011;54576;52.020;5.536;2022-07-21T14:13:53;2.58;;;1.63;;
67776;SDS011;54576;52.020;5.536;2022-07-21T14:16:19;3.97;;;1.95;;
67776;SDS011;54576;52.020;5.536;2022-07-21T14:18:45;3.83;;;1.90;;
67776;SDS011;54576;52.020;5.536;2022-07-21T14:21:10;6.50;;;2.10;;
67776;SDS011;54576;52.020;5.536;2022-07-21T14:23:36;4.40;;;1.38;;
67776;SDS011;54576;52.020;5.536;2022-07-21T14:26:02;1.52;;;1.42;;
67776;SDS011;54576;52.020;5.536;2022-07-21T14:28:28;3.47;;;1.50;;
67776;SDS011;54576;52.020;5.536;2022-07-21T14:30:54;2.35;;;1.50;;
67776;SDS011;54576;52.020;5.536;2022-07-21T14:33:19;2.50;;;1.42;;
67776;SDS011;54576;52.020;5.536;2022-07-21T14:35:45;2.03;;;1.70;;
67776;SDS011;54576;52.020;5.536;2022-07-21T14:38:11;7.63;;;2.05;;
67776;SDS011;54576;52.020;5.536;2022-07-21T14:40:36;3.95;;;1.60;;
67776;SDS011;54576;52.020;5.536;2022-07-21T14:43:03;3.47;;;1.77;;
67776;SDS011;54576;52.020;5.536;2022-07-21T14:45:29;5.95;;;1.67;;
67776;SDS011;54576;52.020;5.536;2022-07-21T14:47:55;12.80;;;2.00;;
67776;SDS011;54576;52.020;5.536;2022-07-21T14:50:23;4.20;;;1.73;;
67776;SDS011;54576;52.020;5.536;2022-07-21T14:52:50;3.93;;;1.83;;
67776;SDS011;54576;52.020;5.536;2022-07-21T14:55:16;3.47;;;2.10;;
67776;SDS011;54576;52.020;5.536;2022-07-21T14:57:42;2.78;;;1.98;;
67776;SDS011;54576;52.020;5.536;2022-07-21T15:00:09;2.72;;;2.13;;